Time;durP1;ratioP1;P1;durP2;ratioP2;P2;SDS_P1;SDS_P2;PMS_P1;PMS_P2;Temp;Humidity;BMP_temperature;BMP_pressure;BME280_temperature;BME280_humidity;BME280_pressure;Samples;Min_cycle;Max_cycle;Signal;HPM_P1;HPM_P2
2023/04/25 00:05:11;;;;;;;2.10;0.90;;;;;;;18.95;36.83;101048.16;16112308;19;130168;-41
2023/04/25 00:10:33;;;;;;;3.33;0.80;;;;;;;18.93;37.21;101050.34;16109428;19;131255;-41
2023/04/25 00:15:56;;;;;;;5.00;0.80;;;;;;;18.90;36.89;101050.81;16106261;19;130167;-44
2023/04/25 00:21:19;;;;;;;2.45;0.75;;;;;;;18.89;37.12;101046.34;16115100;19;129571;-41
2023/04/25 00:26:41;;;;;;;2.30;0.70;;;;;;;18.87;36.99;101049.38;16114366;19;131187;-45
2023/04/25 00:32:03;;;;;;;3.88;0.82;;;;;;;18.85;36.74;101056.25;16113775;19;129667;-40
2023/04/25 00:37:25;;;;;;;3.78;0.80;;;;;;;18.84;36.49;101060.94;16108631;19;129897;-39
2023/04/25 00:42:47;;;;;;;4.35;1.00;;;;;;;18.83;36.83;101047.34;16107712;19;130737;-40
2023/04/25 00:48:09;;;;;;;5.55;0.70;;;;;;;18.80;36.66;101051.44;16111664;19;130238;-40
2023/04/25 00:53:32;;;;;;;2.63;0.85;;;;;;;18.79;36.84;101048.91;16107004;19;131350;-40
2023/04/25 00:58:56;;;;;;;3.35;0.82;;;;;;;18.76;36.52;101048.31;16117109;19;130763;-40
2023/04/25 01:04:18;;;;;;;4.57;1.00;;;;;;;18.75;36.22;101052.16;16122588;19;132335;-39
2023/04/25 01:09:40;;;;;;;4.90;0.93;;;;;;;18.73;36.20;101048.78;16121557;19;130718;-40
2023/04/25 01:15:03;;;;;;;3.67;0.82;;;;;;;18.71;36.33;101056.50;16124026;19;131054;-39
2023/04/25 01:20:26;;;;;;;4.72;1.00;;;;;;;18.69;36.61;101055.94;16122488;19;129405;-39
2023/04/25 01:25:49;;;;;;;2.88;0.80;;;;;;;18.67;36.41;101052.56;16128220;19;129569;-40
2023/04/25 01:31:11;;;;;;;3.05;0.90;;;;;;;18.66;36.24;101063.88;16127252;19;129400;-40
2023/04/25 01:36:34;;;;;;;4.88;0.95;;;;;;;18.64;36.17;101061.34;16122236;19;131707;-40
2023/04/25 01:41:57;;;;;;;2.58;0.98;;;;;;;18.62;36.53;101069.06;16123579;19;129642;-41
2023/04/25 01:47:18;;;;;;;6.13;1.40;;;;;;;18.60;36.44;101063.78;16116699;19;129551;-41
2023/04/25 01:52:40;;;;;;;6.45;1.00;;;;;;;18.59;36.50;101075.06;16126998;19;129479;-40
2023/04/25 01:58:03;;;;;;;2.90;0.88;;;;;;;18.57;36.51;101077.28;16125375;19;129538;-41
2023/04/25 02:03:25;;;;;;;1.75;0.60;;;;;;;18.57;36.42;101078.09;16121452;19;129403;-39
2023/04/25 02:08:47;;;;;;;2.53;0.70;;;;;;;18.56;36.07;101092.22;16119049;19;129159;-39
2023/04/25 02:14:09;;;;;;;2.80;0.90;;;;;;;18.54;36.03;101097.16;16120726;19;129659;-40
2023/04/25 02:19:31;;;;;;;3.05;0.80;;;;;;;18.53;36.19;101087.16;16117617;19;130720;-39
2023/04/25 02:24:53;;;;;;;3.15;0.93;;;;;;;18.52;36.02;101097.41;16117837;19;130657;-40
2023/04/25 02:30:15;;;;;;;2.63;0.73;;;;;;;18.50;36.20;101093.16;16118510;19;129927;-40
2023/04/25 02:35:37;;;;;;;4.93;1.00;;;;;;;18.50;36.33;101093.16;16117421;19;130257;-41
2023/04/25 02:40:59;;;;;;;2.95;0.70;;;;;;;18.48;36.11;101098.94;16117638;19;129790;-40
2023/04/25 02:46:21;;;;;;;1.85;0.55;;;;;;;18.46;36.06;101101.13;16114752;19;130342;-41
2023/04/25 02:51:59;;;;;;;2.15;0.90;;;;;;;18.45;36.44;101103.06;16117752;19;130022;-42
2023/04/25 02:57:21;;;;;;;6.18;1.13;;;;;;;18.43;36.29;101110.75;16120622;19;135337;-40
2023/04/25 03:02:43;;;;;;;2.47;0.85;;;;;;;18.42;36.10;101108.22;16116493;19;129896;-40
2023/04/25 03:08:05;;;;;;;4.13;1.00;;;;;;;18.40;36.15;101102.09;16115520;19;131597;-40
2023/04/25 03:13:27;;;;;;;4.55;1.10;;;;;;;18.37;36.01;101106.13;16114829;19;130033;-42
2023/04/25 03:18:50;;;;;;;4.97;1.02;;;;;;;18.37;35.96;101105.31;16110618;19;129775;-40
2023/04/25 03:24:12;;;;;;;4.90;1.25;;;;;;;18.34;35.70;101100.25;16113056;19;130671;-40
2023/04/25 03:29:34;;;;;;;3.45;0.98;;;;;;;18.33;36.05;101104.94;16110842;19;129611;-40
2023/04/25 03:34:56;;;;;;;3.88;1.00;;;;;;;18.32;36.01;101100.50;16112153;19;131234;-40
2023/04/25 03:40:17;;;;;;;3.13;0.90;;;;;;;18.31;36.11;101104.34;16114682;19;129721;-40
2023/04/25 03:45:39;;;;;;;4.40;1.23;;;;;;;18.28;35.99;101107.59;16109976;19;130123;-39
2023/04/25 03:51:01;;;;;;;6.85;1.02;;;;;;;18.27;35.84;101106.75;16114660;19;130707;-40
2023/04/25 03:56:23;;;;;;;4.38;0.93;;;;;;;18.25;35.75;101110.81;16117949;19;129397;-40
2023/04/25 04:01:45;;;;;;;4.00;1.02;;;;;;;18.26;35.96;101115.28;16111300;19;129624;-41
2023/04/25 04:07:07;;;;;;;3.83;1.00;;;;;;;18.24;35.50;101122.97;16113276;19;130120;-39
2023/04/25 04:12:29;;;;;;;3.35;1.15;;;;;;;18.23;35.79;101121.28;16110806;19;129606;-39
2023/04/25 04:17:51;;;;;;;5.35;1.10;;;;;;;18.21;35.92;101117.94;16112863;19;129647;-40
2023/04/25 04:23:13;;;;;;;3.53;1.00;;;;;;;18.21;35.90;101138.16;16116766;19;130458;-39
2023/04/25 04:28:35;;;;;;;5.35;1.20;;;;;;;18.20;35.71;101132.88;16113124;19;129194;-39
2023/04/25 04:33:57;;;;;;;4.15;1.00;;;;;;;18.19;35.91;101139.47;16127710;19;131903;-41
2023/04/25 04:39:20;;;;;;;4.03;1.15;;;;;;;18.19;35.62;101136.72;16126188;19;130158;-39
2023/04/25 04:44:44;;;;;;;3.63;1.02;;;;;;;18.16;35.54;101143.53;16127424;19;129297;-39
2023/04/25 04:50:09;;;;;;;5.75;1.45;;;;;;;18.15;35.75;101147.44;16128317;19;133586;-40
2023/04/25 04:55:31;;;;;;;4.20;1.20;;;;;;;18.14;35.86;101157.66;16128729;19;129658;-41
2023/04/25 05:00:52;;;;;;;4.40;1.02;;;;;;;18.13;35.64;101169.78;16124962;19;131508;-39
2023/04/25 05:06:14;;;;;;;3.55;0.85;;;;;;;18.13;35.62;101171.75;16126543;19;129743;-40
2023/04/25 05:11:36;;;;;;;3.42;0.90;;;;;;;18.34;35.32;101186.94;16126926;19;129382;-37
2023/04/25 05:16:58;;;;;;;3.17;0.93;;;;;;;18.74;34.88;101196.53;16123049;19;129214;-39
2023/04/25 05:22:20;;;;;;;2.60;0.95;;;;;;;19.11;34.34;101200.97;16128259;19;130931;-41
2023/04/25 05:27:42;;;;;;;3.17;0.90;;;;;;;19.30;34.30;101205.34;16125364;19;129638;-42
2023/04/25 05:33:04;;;;;;;2.88;0.90;;;;;;;19.35;34.29;101210.97;16118507;19;129660;-40
2023/04/25 05:38:26;;;;;;;4.88;0.75;;;;;;;19.36;34.20;101212.66;16123673;19;134530;-40
2023/04/25 05:43:49;;;;;;;4.55;1.10;;;;;;;19.34;34.09;101219.56;16122869;19;131768;-40
2023/04/25 05:49:11;;;;;;;3.72;0.88;;;;;;;19.29;34.16;101223.06;16120558;19;129436;-39
2023/04/25 05:54:33;;;;;;;1.95;0.77;;;;;;;19.23;34.07;101229.56;16122536;19;129451;-41
2023/04/25 05:59:55;;;;;;;4.32;0.98;;;;;;;19.15;34.31;101232.69;16121784;19;128999;-40
2023/04/25 06:05:17;;;;;;;3.83;0.98;;;;;;;19.08;34.24;101243.91;16118349;19;129659;-40
2023/04/25 06:10:39;;;;;;;2.63;0.80;;;;;;;19.01;34.46;101237.66;16117328;19;130165;-40
2023/04/25 06:16:01;;;;;;;1.90;0.65;;;;;;;;;;16115988;19;130832;-40
2023/04/25 06:21:23;;;;;;;3.63;1.00;;;;;;;18.86;34.60;101249.19;16121433;19;130615;-41
2023/04/25 06:26:45;;;;;;;5.80;1.00;;;;;;;18.80;34.67;101264.03;16118767;19;130293;-41
2023/04/25 06:32:07;;;;;;;5.15;1.10;;;;;;;18.76;34.68;101272.81;16120476;19;129641;-40
2023/04/25 06:37:28;;;;;;;7.15;1.38;;;;;;;18.72;34.87;101274.38;16121291;19;129500;-41
2023/04/25 06:42:50;;;;;;;3.22;1.00;;;;;;;18.68;34.51;101277.84;16122963;19;131165;-40
2023/04/25 06:48:12;;;;;;;3.28;1.10;;;;;;;18.66;34.82;101278.09;16123185;19;129343;-42
2023/04/25 06:53:34;;;;;;;7.32;1.10;;;;;;;18.71;34.27;101292.06;16117550;19;129382;-41
2023/04/25 06:58:56;;;;;;;3.30;1.08;;;;;;;18.82;34.47;101297.91;16119409;19;130474;-40
2023/04/25 07:04:18;;;;;;;3.80;1.08;;;;;;;18.93;34.20;101302.63;16118665;19;129836;-41
2023/04/25 07:09:40;;;;;;;5.10;1.20;;;;;;;19.05;33.78;101316.47;16117895;19;129501;-42
2023/04/25 07:15:05;;;;;;;4.38;1.02;;;;;;;19.13;33.59;101312.50;16116877;19;131139;-41
2023/04/25 07:20:27;;;;;;;;;;;;;;;19.17;33.42;101319.28;16116233;19;130152;-42
2023/04/25 07:25:49;;;;;;;5.72;1.58;;;;;;;19.33;33.42;101324.13;16116616;19;131637;-42
2023/04/25 07:31:11;;;;;;;3.88;1.27;;;;;;;19.48;33.23;101320.00;16114892;19;129864;-40
2023/04/25 07:36:33;;;;;;;6.47;1.25;;;;;;;19.62;32.88;101321.44;16113738;19;129557;-40
2023/04/25 07:41:54;;;;;;;6.05;1.48;;;;;;;19.78;32.75;101325.41;16116831;19;131157;-44
2023/04/25 07:47:18;;;;;;;4.03;0.90;;;;;;;19.89;32.72;101320.06;16116348;19;129497;-42
2023/04/25 07:52:40;;;;;;;3.97;1.10;;;;;;;20.00;32.54;101338.66;16115289;19;129377;-40
2023/04/25 07:58:02;;;;;;;4.68;1.30;;;;;;;20.09;32.32;101339.97;16117728;19;130908;-40
2023/04/25 08:03:24;;;;;;;2.53;1.10;;;;;;;20.16;31.66;101348.16;16114654;19;129634;-40
2023/04/25 08:08:46;;;;;;;2.72;0.90;;;;;;;20.18;31.58;101359.03;16129305;19;130912;-40
2023/04/25 08:14:08;;;;;;;5.85;1.23;;;;;;;20.12;32.04;101367.22;16131098;19;130117;-42
2023/04/25 08:19:30;;;;;;;1.90;1.08;;;;;;;20.08;31.63;101373.53;16129146;19;129651;-40
2023/04/25 08:24:52;;;;;;;4.05;1.23;;;;;;;20.05;31.66;101388.75;16128353;19;129631;-42
2023/04/25 08:30:14;;;;;;;3.10;1.17;;;;;;;20.04;31.37;101395.41;16128775;19;129436;-41
2023/04/25 08:35:36;;;;;;;4.35;1.15;;;;;;;20.00;31.03;101399.75;16127287;19;130722;-40
2023/04/25 08:40:59;;;;;;;3.33;0.88;;;;;;;19.94;31.23;101412.66;16126537;19;130323;-41
2023/04/25 08:46:22;;;;;;;4.38;0.80;;;;;;;19.84;31.41;101412.41;16128529;19;129977;-41
2023/04/25 08:51:51;;;;;;;4.60;1.20;;;;;;;19.76;31.79;101429.44;16124294;19;129181;-42
2023/04/25 08:57:15;;;;;;;4.75;1.02;;;;;;;19.64;31.77;101446.09;16123307;19;129791;-42
2023/04/25 09:02:37;;;;;;;4.63;1.10;;;;;;;19.49;31.77;101455.75;16119990;19;131642;-42
2023/04/25 09:08:00;;;;;;;5.68;1.42;;;;;;;19.35;32.04;101463.44;16121862;19;129487;-40
2023/04/25 09:13:27;;;;;;;5.38;1.33;;;;;;;19.26;31.80;101467.66;16119409;19;130197;-40
2023/04/25 09:18:50;;;;;;;6.13;1.17;;;;;;;19.19;31.62;101486.31;16115894;19;129561;-43
2023/04/25 09:24:12;;;;;;;5.18;1.05;;;;;;;19.15;31.94;101487.84;16121060;19;131270;-42
2023/04/25 09:29:36;;;;;;;3.47;0.80;;;;;;;19.16;32.08;101487.59;16115409;19;129732;-40
2023/04/25 09:34:58;;;;;;;4.05;1.00;;;;;;;19.23;31.66;101493.06;16115986;19;130269;-41
2023/04/25 09:40:20;;;;;;;4.03;0.75;;;;;;;19.37;31.55;101496.50;16120569;19;129580;-40
2023/04/25 09:45:47;;;;;;;4.68;1.00;;;;;;;19.51;31.19;101495.19;16111891;19;131863;-42
2023/04/25 09:51:16;;;;;;;3.08;1.00;;;;;;;19.64;30.91;101502.47;16112746;19;130271;-42
2023/04/25 09:56:38;;;;;;;2.40;0.90;;;;;;;19.76;31.36;101508.00;16115113;19;130653;-45
2023/04/25 10:02:01;;;;;;;2.72;0.73;;;;;;;19.86;31.01;101504.66;15964235;19;2947016;-41
2023/04/25 10:07:26;;;;;;;2.13;0.80;;;;;;;19.96;30.78;101516.00;16121732;19;129748;-41
2023/04/25 10:12:48;;;;;;;4.33;0.97;;;;;;;20.02;30.92;101511.44;16121193;19;130499;-41
2023/04/25 10:18:10;;;;;;;3.83;0.95;;;;;;;20.05;30.82;101508.19;16122231;19;129717;-42
2023/04/25 10:23:36;;;;;;;2.90;0.75;;;;;;;20.08;30.66;101517.97;16125240;19;130370;-44
2023/04/25 10:29:03;;;;;;;2.42;0.80;;;;;;;20.09;30.64;101514.09;16115631;19;129382;-41
2023/04/25 10:34:41;;;;;;;3.25;0.60;;;;;;;20.07;30.03;101500.47;16117501;19;130275;-42
2023/04/25 10:40:12;;;;;;;3.60;1.10;;;;;;;20.05;30.49;101499.03;16120494;19;129896;-43
2023/04/25 10:45:51;;;;;;;2.05;0.70;;;;;;;19.95;30.17;101508.75;16118619;19;131256;-42
2023/04/25 10:51:32;;;;;;;1.83;0.60;;;;;;;19.91;30.44;101499.25;16118841;19;129905;-41
2023/04/25 10:57:27;;;;;;;3.40;0.60;;;;;;;19.81;30.44;101504.53;16119540;19;129757;-40
2023/04/25 11:02:57;;;;;;;3.22;0.70;;;;;;;19.68;30.93;101506.47;16109635;19;129900;-41
2023/04/25 11:08:36;;;;;;;2.90;0.70;;;;;;;19.58;30.94;101513.69;16116836;19;129703;-40
2023/04/25 11:13:58;;;;;;;2.45;0.52;;;;;;;19.49;30.91;101516.81;16117233;19;130090;-43
2023/04/25 11:19:20;;;;;;;3.45;0.70;;;;;;;19.43;30.89;101505.81;16119348;19;129816;-41
2023/04/25 11:24:43;;;;;;;3.10;0.85;;;;;;;19.35;30.57;101513.38;16116299;19;130000;-40
2023/04/25 11:30:13;;;;;;;3.33;0.80;;;;;;;19.33;30.69;101507.22;16120895;19;131012;-41
2023/04/25 11:35:35;;;;;;;5.05;0.63;;;;;;;19.31;30.35;101514.97;16114338;19;130701;-41
2023/04/25 11:40:57;;;;;;;1.92;0.70;;;;;;;19.30;30.30;101518.81;16116637;19;129857;-41
2023/04/25 11:46:20;;;;;;;7.10;0.95;;;;;;;19.28;30.35;101525.66;16113332;19;129762;-41
2023/04/25 11:51:43;;;;;;;4.22;0.82;;;;;;;19.27;30.56;101527.59;16115152;19;130587;-41
2023/04/25 11:57:05;;;;;;;5.85;0.80;;;;;;;19.29;30.07;101528.22;16116966;19;129741;-41
2023/04/25 12:02:27;;;;;;;4.28;0.80;;;;;;;19.24;30.11;101536.38;16114606;19;129799;-48
2023/04/25 12:07:50;;;;;;;2.20;0.65;;;;;;;19.24;30.40;101547.47;16113750;19;129380;-40
2023/04/25 12:13:20;;;;;;;3.90;0.82;;;;;;;19.27;29.78;101535.91;16113031;19;129520;-41
2023/04/25 12:18:42;;;;;;;3.05;0.70;;;;;;;19.29;30.27;101544.84;16111912;19;130023;-43
2023/04/25 12:24:19;;;;;;;1.77;0.50;;;;;;;19.30;30.28;101557.66;16115683;19;130173;-42
2023/04/25 12:29:51;;;;;;;3.75;0.60;;;;;;;19.27;30.16;101560.88;16111203;19;129593;-39
2023/04/25 12:35:12;;;;;;;1.45;0.40;;;;;;;19.25;29.87;101565.81;16111356;19;131370;-41
2023/04/25 12:40:34;;;;;;;2.95;0.70;;;;;;;19.22;29.68;101569.06;16112227;19;129702;-42
2023/04/25 12:45:57;;;;;;;4.65;0.63;;;;;;;19.21;29.39;101575.69;16108755;19;129292;-41
2023/04/25 12:51:18;;;;;;;1.60;0.52;;;;;;;19.21;29.34;101570.13;16117552;19;129777;-41
2023/04/25 12:56:41;;;;;;;3.03;0.60;;;;;;;19.21;29.46;101564.59;16127846;19;129507;-41
2023/04/25 13:02:03;;;;;;;4.78;0.60;;;;;;;19.24;29.27;101569.66;16126231;19;129351;-41
2023/04/25 13:07:25;;;;;;;2.50;0.70;;;;;;;19.22;29.39;101564.38;16127393;19;129624;-42
2023/04/25 13:12:47;;;;;;;1.90;0.60;;;;;;;19.24;29.40;101549.41;16125247;19;129870;-41
2023/04/25 13:18:09;;;;;;;1.45;0.50;;;;;;;19.22;29.14;101563.50;16120193;19;129817;-42
2023/04/25 13:23:30;;;;;;;4.60;0.68;;;;;;;19.20;29.25;101568.44;16124646;19;129747;-43
2023/04/25 13:28:52;;;;;;;1.70;0.80;;;;;;;19.18;28.79;101560.31;16122415;19;129631;-41
2023/04/25 13:34:14;;;;;;;2.38;0.60;;;;;;;19.19;29.06;101558.41;16125215;19;130816;-41
2023/04/25 13:39:36;;;;;;;1.15;0.40;;;;;;;19.18;28.43;101570.59;16121890;19;131471;-39
2023/04/25 13:44:58;;;;;;;5.15;0.80;;;;;;;19.17;28.18;101580.00;16123942;19;129704;-42
2023/04/25 13:50:20;;;;;;;1.80;0.55;;;;;;;19.14;28.13;101578.50;16121523;19;131595;-41
2023/04/25 13:55:42;;;;;;;2.47;0.70;;;;;;;19.14;28.32;101580.44;16121241;19;129595;-44
2023/04/25 14:01:04;;;;;;;2.00;0.70;;;;;;;19.13;28.44;101576.84;16122885;19;129344;-43
2023/04/25 14:06:27;;;;;;;1.95;0.50;;;;;;;19.14;27.87;101580.44;16118753;19;133885;-42
2023/04/25 14:11:49;;;;;;;3.75;0.57;;;;;;;19.14;28.38;101580.44;16119407;19;130700;-41
2023/04/25 14:17:11;;;;;;;2.30;0.50;;;;;;;19.14;28.45;101580.44;16120233;19;130515;-41
2023/04/25 14:22:33;;;;;;;1.13;0.40;;;;;;;19.14;28.20;101597.09;16120934;19;129127;-41
2023/04/25 14:27:55;;;;;;;2.65;0.60;;;;;;;19.12;28.00;101582.59;16120133;19;129545;-42
2023/04/25 14:33:17;;;;;;;3.50;0.60;;;;;;;19.13;27.84;101584.31;16121877;19;129410;-43
2023/04/25 14:38:39;;;;;;;1.42;0.57;;;;;;;19.14;27.99;101583.22;16121568;19;130412;-41
2023/04/25 14:44:01;;;;;;;1.05;0.40;;;;;;;19.12;28.10;101597.34;16119643;19;133068;-44
2023/04/25 14:49:23;;;;;;;2.97;0.68;;;;;;;19.10;27.82;101604.19;16118041;19;129774;-41
2023/04/25 14:54:45;;;;;;;2.00;0.60;;;;;;;19.10;28.05;101604.19;16120944;19;131838;-42
2023/04/25 15:00:09;;;;;;;2.03;0.55;;;;;;;19.08;28.17;101605.25;16118889;19;129363;-41
2023/04/25 15:05:31;;;;;;;5.25;1.27;;;;;;;19.08;28.43;101598.88;16119947;19;131178;-44
2023/04/25 15:10:53;;;;;;;9.07;1.02;;;;;;;19.10;28.91;101606.94;16118065;19;129524;-41
2023/04/25 15:16:15;;;;;;;9.43;1.23;;;;;;;19.13;29.21;101609.25;16117995;19;130258;-43
2023/04/25 15:21:37;;;;;;;8.68;1.42;;;;;;;19.15;29.30;101609.88;16119331;19;128830;-39
2023/04/25 15:26:59;;;;;;;8.70;0.93;;;;;;;19.15;29.35;101615.44;16118494;19;129713;-41
2023/04/25 15:32:22;;;;;;;8.52;1.00;;;;;;;19.14;28.87;101625.66;16120692;19;129451;-42
2023/04/25 15:37:45;;;;;;;4.03;0.90;;;;;;;19.13;28.89;101620.34;16116234;19;130438;-41
2023/04/25 15:43:09;;;;;;;1.92;0.47;;;;;;;19.11;28.70;101630.84;16117237;19;129838;-44
2023/04/25 15:48:32;;;;;;;6.83;0.97;;;;;;;19.10;28.85;101634.69;16115346;19;129588;-41
2023/04/25 15:53:55;;;;;;;5.03;0.73;;;;;;;19.10;28.60;101630.00;16114330;19;130067;-42
2023/04/25 15:59:17;;;;;;;2.03;0.75;;;;;;;19.11;28.71;101625.28;16113694;19;130699;-41
2023/04/25 16:04:38;;;;;;;4.38;0.60;;;;;;;19.12;28.66;101638.06;16111896;19;131293;-42
2023/04/25 16:10:01;;;;;;;8.52;1.13;;;;;;;19.18;29.30;101648.25;16115952;19;129893;-42
2023/04/25 16:15:23;;;;;;;9.32;1.50;;;;;;;19.25;29.98;101637.09;16108647;19;129549;-41
2023/04/25 16:20:45;;;;;;;8.75;1.17;;;;;;;19.27;29.74;101646.88;16109106;19;129219;-44
2023/04/25 16:26:07;;;;;;;13.57;1.10;;;;;;;19.27;29.60;101646.88;16117756;19;129766;-41
2023/04/25 16:31:29;;;;;;;8.00;1.00;;;;;;;19.26;29.14;101650.72;16128097;19;132021;-40
2023/04/25 16:36:51;;;;;;;9.07;1.00;;;;;;;19.29;28.82;101647.50;16129278;19;129818;-41
2023/04/25 16:42:16;;;;;;;4.78;0.80;;;;;;;19.46;28.64;101653.25;16127583;19;131467;-41
2023/04/25 16:47:38;;;;;;;7.10;0.75;;;;;;;19.60;28.56;101662.22;16126018;19;129256;-43
2023/04/25 16:53:00;;;;;;;6.70;1.20;;;;;;;19.73;28.40;101671.44;16128185;19;129759;-44
2023/04/25 16:58:22;;;;;;;4.30;0.70;;;;;;;19.79;27.92;101660.25;16126804;19;129312;-41
2023/04/25 17:03:44;;;;;;;3.67;0.70;;;;;;;19.82;27.87;101667.25;16129028;19;131944;-43
2023/04/25 17:09:06;;;;;;;4.72;0.68;;;;;;;19.79;27.87;101668.56;16128316;19;129402;-41
2023/04/25 17:14:28;;;;;;;2.72;0.57;;;;;;;19.82;27.74;101670.03;16126716;19;131149;-41
2023/04/25 17:19:50;;;;;;;2.45;0.70;;;;;;;19.85;27.47;101675.13;16120406;19;129956;-41
2023/04/25 17:25:12;;;;;;;2.95;0.70;;;;;;;19.88;27.17;101679.38;16121623;19;130291;-41
2023/04/25 17:30:34;;;;;;;3.53;1.05;;;;;;;19.88;27.28;101685.75;16116397;19;132310;-40
2023/04/25 17:35:56;;;;;;;3.53;0.63;;;;;;;19.87;27.40;101684.06;16120569;19;131406;-41
2023/04/25 17:41:19;;;;;;;2.00;0.60;;;;;;;19.84;27.07;101695.63;16123026;19;131653;-42
2023/04/25 17:46:41;;;;;;;3.17;0.70;;;;;;;19.78;26.97;101697.41;16124414;19;131718;-40
2023/04/25 17:52:03;;;;;;;2.88;0.55;;;;;;;19.73;27.21;101700.06;16121024;19;130681;-41
2023/04/25 17:57:26;;;;;;;1.30;0.45;;;;;;;19.69;26.90;101705.22;16125701;19;130233;-40
2023/04/25 18:02:49;;;;;;;3.45;0.73;;;;;;;19.63;26.94;101706.19;16122893;19;129568;-41
2023/04/25 18:08:12;;;;;;;1.83;0.60;;;;;;;19.61;27.02;101707.50;16123606;19;129597;-41
2023/04/25 18:13:35;;;;;;;2.95;0.93;;;;;;;19.60;27.29;101714.97;16120534;19;129689;-40
2023/04/25 18:19:04;;;;;;;3.17;0.93;;;;;;;19.56;27.27;101719.31;16121920;19;131494;-41
2023/04/25 18:24:26;;;;;;;2.25;0.45;;;;;;;19.58;27.47;101727.38;16123454;19;129645;-42
2023/04/25 18:29:47;;;;;;;7.93;0.80;;;;;;;19.63;28.04;101738.66;16120723;19;129488;-40
2023/04/25 18:35:10;;;;;;;5.13;0.80;;;;;;;19.65;27.96;101742.88;16118474;19;130154;-40
2023/04/25 18:40:32;;;;;;;2.53;0.70;;;;;;;19.67;28.19;101743.50;16117492;19;130823;-41
2023/04/25 18:45:58;;;;;;;9.27;0.80;;;;;;;19.63;28.53;101750.59;16116948;19;129920;-41
2023/04/25 18:51:28;;;;;;;1.60;0.40;;;;;;;19.66;28.53;101757.59;16113946;19;129413;-40
2023/04/25 18:56:50;;;;;;;6.05;1.00;;;;;;;19.84;28.81;101763.13;16116879;19;131361;-40
2023/04/25 19:02:14;;;;;;;3.38;0.55;;;;;;;20.13;28.68;101768.09;16117302;19;131090;-40
2023/04/25 19:07:37;;;;;;;13.40;0.90;;;;;;;20.41;28.75;101766.63;16115869;19;130357;-39
2023/04/25 19:12:59;;;;;;;15.63;1.55;;;;;;;20.60;28.67;101782.13;16115725;19;131044;-43
2023/04/25 19:18:21;;;;;;;19.17;1.35;;;;;;;20.78;28.32;101766.47;16114891;19;133043;-41
2023/04/25 19:23:43;;;;;;;15.38;1.10;;;;;;;21.00;28.36;101785.34;16116196;19;129314;-42
2023/04/25 19:29:11;;;;;;;13.98;0.82;;;;;;;21.18;28.33;101787.97;16117932;19;130588;-41
2023/04/25 19:34:33;;;;;;;8.50;1.00;;;;;;;21.34;28.81;101796.69;16114208;19;131844;-41
2023/04/25 19:39:55;;;;;;;10.65;0.85;;;;;;;21.44;28.79;101802.47;16110819;19;130659;-41
2023/04/25 19:45:17;;;;;;;14.27;1.33;;;;;;;21.45;28.61;101803.34;16114469;19;129473;-41
2023/04/25 19:50:40;;;;;;;18.00;1.40;;;;;;;21.42;29.16;101803.81;16116424;19;129530;-42
2023/04/25 19:56:02;;;;;;;17.27;1.52;;;;;;;21.32;29.21;101813.66;16112727;19;129628;-43
2023/04/25 20:01:25;;;;;;;19.40;1.60;;;;;;;21.25;29.49;101818.47;16120672;19;129572;-41
2023/04/25 20:06:46;;;;;;;5.82;0.90;;;;;;;21.16;29.64;101806.88;16124117;19;129402;-40
2023/04/25 20:12:10;;;;;;;13.77;1.20;;;;;;;21.11;29.93;101808.69;16129231;19;130281;-40
2023/04/25 20:17:33;;;;;;;12.77;1.02;;;;;;;21.02;30.08;101813.78;16135239;19;129261;-40
2023/04/25 20:22:55;;;;;;;13.57;0.98;;;;;;;20.96;30.04;101817.50;16128660;19;130090;-42
2023/04/25 20:28:17;;;;;;;14.70;1.17;;;;;;;20.89;30.29;101810.13;16114952;19;129568;-42
2023/04/25 20:33:42;;;;;;;10.98;1.33;;;;;;;20.84;30.47;101821.13;16119776;19;129757;-41
2023/04/25 20:39:04;;;;;;;21.30;1.80;;;;;;;20.77;30.89;101820.41;16127991;19;129684;-45
2023/04/25 20:44:26;;;;;;;13.38;1.40;;;;;;;20.69;30.90;101820.69;16122659;19;130565;-41
2023/04/25 20:49:48;;;;;;;5.80;0.90;;;;;;;20.59;30.94;101827.69;16125928;19;131625;-40
2023/04/25 20:55:10;;;;;;;7.88;1.00;;;;;;;20.49;30.79;101824.66;16127475;19;129462;-42
2023/04/25 21:00:33;;;;;;;7.85;1.55;;;;;;;20.38;30.95;101831.84;16123911;19;131635;-44
2023/04/25 21:05:55;;;;;;;12.45;1.63;;;;;;;20.30;30.85;101834.97;16124379;19;129847;-43
2023/04/25 21:11:18;;;;;;;6.53;0.70;;;;;;;20.21;31.32;101840.00;16126390;19;129308;-41
2023/04/25 21:16:41;;;;;;;4.60;0.80;;;;;;;20.13;31.18;101840.34;16125119;19;130911;-43
2023/04/25 21:22:03;;;;;;;8.00;0.90;;;;;;;20.06;31.08;101842.38;16127097;19;129585;-44
2023/04/25 21:27:25;;;;;;;5.88;0.70;;;;;;;19.99;31.20;101846.06;16125104;19;130032;-41
2023/04/25 21:32:50;;;;;;;3.53;0.88;;;;;;;19.93;31.20;101846.97;16118783;19;129179;-42
2023/04/25 21:38:13;;;;;;;4.60;0.82;;;;;;;19.86;31.25;101842.59;16126710;19;130120;-43
2023/04/25 21:43:35;;;;;;;6.68;0.80;;;;;;;19.80;31.53;101847.13;16124729;19;130126;-41
2023/04/25 21:48:57;;;;;;;3.30;0.85;;;;;;;19.73;31.26;101849.13;16125669;19;129920;-41
2023/04/25 21:54:19;;;;;;;2.78;0.60;;;;;;;19.67;31.31;101845.34;16124818;19;129589;-41
2023/04/25 21:59:42;;;;;;;3.53;0.82;;;;;;;19.61;31.40;101858.22;16125025;19;128926;-41
2023/04/25 22:05:05;;;;;;;4.07;0.70;;;;;;;19.56;31.44;101860.88;16121590;19;131618;-41
2023/04/25 22:10:27;;;;;;;3.30;0.70;;;;;;;19.52;31.77;101859.63;16117553;19;130351;-41
2023/04/25 22:15:49;;;;;;;2.25;0.50;;;;;;;19.49;31.60;101858.16;16122060;19;129904;-43
2023/04/25 22:21:11;;;;;;;3.15;0.63;;;;;;;19.46;31.81;101857.75;16117514;19;129455;-42
2023/04/25 22:26:33;;;;;;;4.97;0.40;;;;;;;19.42;31.43;101860.13;16114768;19;130200;-42
2023/04/25 22:31:55;;;;;;;2.58;0.40;;;;;;;19.39;31.79;101857.81;16112907;19;131599;-46
2023/04/25 22:37:17;;;;;;;2.55;0.43;;;;;;;19.35;31.97;101865.75;16115579;19;129938;-44
2023/04/25 22:42:41;;;;;;;3.38;0.60;;;;;;;19.32;31.73;101865.34;16116155;19;129588;-41
2023/04/25 22:48:03;;;;;;;1.55;0.43;;;;;;;19.29;31.86;101880.53;16117025;19;130701;-40
2023/04/25 22:53:24;;;;;;;1.17;0.50;;;;;;;19.25;31.88;101882.06;16118220;19;131018;-41
2023/04/25 22:58:48;;;;;;;1.48;0.50;;;;;;;19.22;32.10;101879.75;16112509;19;130741;-41
2023/04/25 23:04:10;;;;;;;2.58;0.65;;;;;;;19.19;31.71;101880.19;16116106;19;129707;-39
2023/04/25 23:09:33;;;;;;;1.45;0.50;;;;;;;19.17;32.02;101874.00;16115318;19;129933;-40
2023/04/25 23:14:54;;;;;;;1.10;0.40;;;;;;;19.15;31.73;101887.25;16115986;19;129394;-40
2023/04/25 23:20:16;;;;;;;1.10;0.50;;;;;;;19.12;32.03;101884.91;16117148;19;129758;-40
2023/04/25 23:25:41;;;;;;;1.25;0.57;;;;;;;19.10;31.76;101881.53;16115897;19;129828;-41
2023/04/25 23:31:08;;;;;;;3.58;0.80;;;;;;;19.06;32.08;101882.00;16115272;19;131068;-40
2023/04/25 23:36:33;;;;;;;1.20;0.50;;;;;;;19.03;32.09;101885.22;16110756;19;129751;-41
2023/04/25 23:41:56;;;;;;;1.63;0.38;;;;;;;19.01;32.07;101881.81;16113142;19;128955;-39
2023/04/25 23:47:19;;;;;;;0.70;0.30;;;;;;;18.99;31.92;101872.88;16114557;19;130162;-40
2023/04/25 23:52:41;;;;;;;1.08;0.40;;;;;;;18.96;31.98;101876.09;16111792;19;131224;-40
2023/04/25 23:58:03;;;;;;;1.33;0.52;;;;;;;18.94;32.19;101871.84;16118306;19;129413;-41
